Impacts METAR Board
IDs:

KCNW - Waco/Texas State Tec, TX, US

Updated at: 0900 UTC 26 May 2019
Potential Impact None Slight Moderate High
Time 25/21Z 25/22Z 25/23Z 26/00Z 26/01Z 26/02Z 26/03Z 26/04Z 26/05Z 26/06Z 26/07Z 26/08Z 26/09Z
Temp91 91 90 88 84 81 79 79
Dewpt68 68 68 66 66 66 64 66
Altim29.99 29.97 29.96 29.95 29.95 29.96 29.97 29.98
VIS10 10 10 10 10 10 10 10
CIG-- -- -- -- -- -- -- --
CoverSCTSCTFEWSKCSKCSKCSKCSKC
FltCatVFRVFRVFRVFRVFRVFRVFRVFR
WX----------------
WDir180150140160150150150160
WSpd15 13 12 14 9 9 7 11
WGst20 20 20 18 15 -- -- --
Raw hourly METARs
KCNW 252055Z 18015G20KT 10SM SCT042 33/20 A2999
KCNW 252155Z 15013G20KT 10SM SCT047 33/20 A2997
KCNW 252255Z 14012G20KT 10SM FEW045 32/20 A2996
KCNW 252355Z 16014G18KT 10SM SKC 31/19 A2995
KCNW 260055Z 15009G15KT 10SM SKC 29/19 A2995
KCNW 260155Z 15009KT 10SM SKC 27/19 A2996
KCNW 260255Z 15007KT 10SM SKC 26/18 A2997
KCNW 260355Z 16011KT 10SM SKC 26/19 A2998